Time;durP1;ratioP1;P1;durP2;ratioP2;P2;SDS_P1;SDS_P2;PMS_P1;PMS_P2;Temp;Humidity;BMP_temperature;BMP_pressure;BME280_temperature;BME280_humidity;BME280_pressure;Samples;Min_cycle;Max_cycle;Signal;HPM_P1;HPM_P2
2023/06/26 00:02:11;;;;;;;8.60;7.70;;;;;;;22.29;89.71;101098.00;4897685;29;20040;-95
2023/06/26 00:04:38;;;;;;;10.73;8.00;;;;;;;22.23;90.15;101103.69;4897777;29;20025;-96
2023/06/26 00:07:06;;;;;;;9.33;7.63;;;;;;;22.22;86.80;101118.47;4883726;29;20016;-94
2023/06/26 00:09:32;;;;;;;8.27;7.47;;;;;;;22.17;84.62;101106.94;4904045;29;20296;-95
2023/06/26 00:11:59;;;;;;;7.18;6.55;;;;;;;22.22;83.99;101109.47;4886716;29;20035;-95
2023/06/26 00:14:25;;;;;;;10.50;7.10;;;;;;;22.24;83.58;101110.75;4888215;29;20503;-95
2023/06/26 00:16:50;;;;;;;7.35;6.68;;;;;;;22.23;85.14;101106.41;4887429;29;20039;-94
2023/06/26 00:19:16;;;;;;;7.30;6.70;;;;;;;22.22;83.12;101101.28;4904976;29;20025;-96
2023/06/26 00:21:46;;;;;;;7.30;6.60;;;;;;;22.17;83.55;101096.81;4912772;29;20028;-94
2023/06/26 00:24:12;;;;;;;7.78;6.97;;;;;;;22.13;83.25;101095.09;4901834;29;20024;-95
2023/06/26 00:26:37;;;;;;;7.93;6.68;;;;;;;22.09;83.50;101087.56;4911873;29;20030;-96
2023/06/26 00:29:02;;;;;;;13.07;6.80;;;;;;;22.16;83.75;101100.66;4904993;29;20485;-95
2023/06/26 00:31:28;;;;;;;7.50;6.80;;;;;;;22.07;83.43;101086.28;4905197;29;20388;-95
2023/06/26 00:33:53;;;;;;;7.63;6.83;;;;;;;22.06;83.18;101096.38;4905780;29;20392;-95
2023/06/26 00:36:18;;;;;;;8.23;7.20;;;;;;;22.05;84.19;101099.47;4907357;29;20111;-94
2023/06/26 00:38:44;;;;;;;7.93;6.67;;;;;;;22.03;84.31;101096.25;4922596;29;20052;-95
2023/06/26 00:41:12;;;;;;;9.17;7.40;;;;;;;21.92;84.01;101091.16;4926693;29;20039;-94
2023/06/26 00:43:38;;;;;;;7.63;6.53;;;;;;;21.90;84.35;101088.00;4903507;29;20040;-93
2023/06/26 00:46:03;;;;;;;11.05;6.75;;;;;;;21.90;84.40;101098.09;4897740;29;20366;-94
2023/06/26 00:48:29;;;;;;;9.63;7.10;;;;;;;21.84;84.98;101089.28;4901047;29;20059;-96
2023/06/26 00:50:55;;;;;;;11.98;7.22;;;;;;;21.79;85.07;101094.94;4908879;29;20589;-95
2023/06/26 00:53:21;;;;;;;12.27;8.07;;;;;;;21.75;84.68;101107.59;4907307;29;20036;-96
2023/06/26 00:55:47;;;;;;;8.85;6.85;;;;;;;21.69;84.54;101103.47;4888903;29;20397;-96
2023/06/26 00:58:12;;;;;;;8.10;7.30;;;;;;;21.69;83.80;101100.75;4908606;29;20029;-95
2023/06/26 01:00:38;;;;;;;8.17;7.07;;;;;;;21.68;83.09;101107.34;4905179;29;20507;-96
2023/06/26 01:03:04;;;;;;;8.93;7.38;;;;;;;21.58;84.71;101103.78;4905845;29;20111;-96
2023/06/26 01:05:29;;;;;;;9.47;7.63;;;;;;;21.56;84.17;101106.03;4907695;29;20036;-96
2023/06/26 01:07:57;;;;;;;8.82;7.90;;;;;;;21.55;85.79;101114.56;4891242;29;20035;-96
2023/06/26 01:10:23;;;;;;;8.43;7.50;;;;;;;21.48;85.37;101104.94;4888817;29;20025;-96
2023/06/26 01:12:49;;;;;;;8.73;7.45;;;;;;;21.40;85.90;101103.06;4891895;29;20089;-96
2023/06/26 01:15:14;;;;;;;9.10;7.60;;;;;;;21.42;85.74;101110.91;4908069;29;20409;-96
2023/06/26 01:17:44;;;;;;;11.10;7.80;;;;;;;21.36;85.45;101114.94;4909152;29;20085;-96
2023/06/26 01:20:10;;;;;;;9.93;7.45;;;;;;;21.31;85.44;101127.63;4887221;29;20040;-96
2023/06/26 01:22:47;;;;;;;8.82;7.65;;;;;;;21.27;85.67;101120.41;4905253;29;20080;-96
2023/06/26 01:25:44;;;;;;;13.75;7.50;;;;;;;21.24;85.54;101116.41;4913517;29;20017;-96
2023/06/26 01:28:13;;;;;;;9.98;7.03;;;;;;;21.18;85.37;101131.34;4835566;29;20038;-96
2023/06/26 01:30:42;;;;;;;9.15;7.00;;;;;;;21.15;85.39;101123.78;4923337;29;20036;-96
2023/06/26 01:35:44;;;;;;;7.65;6.57;;;;;;;21.04;85.59;101128.78;5859294;23;20019;-95
2023/06/26 01:38:16;;;;;;;11.53;6.77;;;;;;;21.03;85.83;101141.56;4926782;29;20103;-96
2023/06/26 01:40:43;;;;;;;8.57;6.45;;;;;;;20.94;86.66;101129.09;4923650;29;20032;-95
2023/06/26 01:43:18;;;;;;;10.70;7.15;;;;;;;20.87;86.86;101132.28;4902753;29;20196;-96
2023/06/26 01:45:47;;;;;;;7.25;6.55;;;;;;;20.83;87.32;101151.19;4900692;29;20024;-96
2023/06/26 01:48:15;;;;;;;7.93;6.65;;;;;;;20.81;87.27;101156.16;4911486;29;20040;-96
2023/06/26 01:50:42;;;;;;;14.38;6.68;;;;;;;20.71;88.11;101143.63;4891767;29;20025;-95
2023/06/26 01:53:07;;;;;;;8.93;6.43;;;;;;;20.74;87.49;101158.53;4909405;29;20138;-95
2023/06/26 01:55:51;;;;;;;6.97;5.83;;;;;;;20.68;87.85;101159.81;4907150;29;20780;-96
2023/06/26 01:58:18;;;;;;;12.30;6.82;;;;;;;20.58;88.45;101155.47;4889646;29;20633;-96
2023/06/26 02:00:44;;;;;;;12.23;6.57;;;;;;;20.55;88.23;101169.72;4893805;29;20053;-95
2023/06/26 02:03:09;;;;;;;7.97;6.67;;;;;;;20.49;89.64;101160.91;4925045;29;20304;-96
2023/06/26 02:05:35;;;;;;;7.77;6.53;;;;;;;20.46;88.61;101163.44;4907610;29;20044;-96
2023/06/26 02:08:03;;;;;;;10.63;6.40;;;;;;;20.47;89.43;101175.94;4907691;29;20164;-96
2023/06/26 02:10:29;;;;;;;8.47;6.40;;;;;;;20.42;89.31;101169.53;4907654;29;20033;-93
2023/06/26 02:12:55;;;;;;;8.50;6.47;;;;;;;20.40;89.77;101165.50;4905362;29;20287;-95
2023/06/26 02:15:20;;;;;;;7.97;5.80;;;;;;;20.33;90.19;101165.97;4900324;29;20084;-91
2023/06/26 02:17:48;;;;;;;8.87;5.53;;;;;;;20.21;89.86;101163.88;4888172;29;20289;-95
2023/06/26 02:20:15;;;;;;;13.60;5.47;;;;;;;20.19;89.79;101168.81;4881143;29;20045;-92
2023/06/26 02:22:41;;;;;;;6.57;5.03;;;;;;;20.18;89.36;101169.13;4904338;29;20099;-92
2023/06/26 02:25:06;;;;;;;6.13;5.13;;;;;;;20.13;89.00;101173.59;4895443;29;20032;-92
2023/06/26 02:27:32;;;;;;;11.13;5.53;;;;;;;20.04;89.44;101166.53;4881386;29;20505;-92
2023/06/26 02:29:57;;;;;;;11.10;5.30;;;;;;;20.00;90.09;101163.63;4891646;29;20031;-91
2023/06/26 02:32:22;;;;;;;6.57;4.90;;;;;;;19.93;90.27;101160.56;4905376;29;20060;-93
2023/06/26 02:34:48;;;;;;;8.63;5.00;;;;;;;19.89;89.82;101165.81;4884321;29;20422;-91
2023/06/26 02:37:13;;;;;;;5.33;4.70;;;;;;;19.88;90.04;101166.16;4910634;29;20112;-88
2023/06/26 02:39:39;;;;;;;5.55;4.65;;;;;;;19.85;90.10;101166.75;4886570;29;20084;-92
2023/06/26 02:42:04;;;;;;;7.20;4.80;;;;;;;19.82;89.99;101177.13;4899283;29;20036;-92
2023/06/26 02:44:30;;;;;;;7.68;4.70;;;;;;;19.76;90.83;101170.19;4899105;29;20028;-92
2023/06/26 02:46:55;;;;;;;6.00;4.77;;;;;;;19.68;91.86;101179.91;4899162;29;20097;-91
2023/06/26 02:49:20;;;;;;;5.67;4.87;;;;;;;19.66;90.17;101182.16;4894030;29;20103;-91
2023/06/26 02:51:48;;;;;;;7.37;4.30;;;;;;;19.61;91.06;101186.91;4882808;29;20029;-91
2023/06/26 02:54:14;;;;;;;8.35;4.70;;;;;;;19.57;91.16;101180.47;4916755;29;20035;-91
2023/06/26 02:56:39;;;;;;;6.87;4.47;;;;;;;19.55;90.99;101199.00;4917428;29;20766;-91
2023/06/26 02:59:04;;;;;;;6.88;4.05;;;;;;;19.52;91.14;101203.97;4897556;29;20032;-91
2023/06/26 03:01:30;;;;;;;9.90;4.50;;;;;;;19.49;91.98;101196.44;4898407;29;20032;-92
2023/06/26 03:03:55;;;;;;;8.47;4.43;;;;;;;19.44;91.73;101199.28;4897796;29;20055;-91
2023/06/26 03:06:21;;;;;;;7.80;4.67;;;;;;;19.44;91.16;101210.16;4896563;29;20036;-92
2023/06/26 03:08:46;;;;;;;7.07;4.10;;;;;;;19.36;91.19;101205.44;4897232;29;20021;-92
2023/06/26 03:11:11;;;;;;;7.23;4.30;;;;;;;19.32;91.39;101216.13;4882127;29;20501;-92
2023/06/26 03:13:37;;;;;;;8.73;4.07;;;;;;;19.30;91.12;101212.13;4905130;29;20111;-92
2023/06/26 03:16:03;;;;;;;10.70;4.20;;;;;;;19.26;91.87;101216.56;4910311;29;20056;-94
2023/06/26 03:18:29;;;;;;;6.23;4.13;;;;;;;19.19;91.95;101215.06;4909018;29;20303;-92
2023/06/26 03:20:55;;;;;;;6.47;4.20;;;;;;;19.19;92.41;101211.56;4907022;29;20524;-90
2023/06/26 03:23:21;;;;;;;7.20;4.10;;;;;;;19.18;93.87;101215.38;4886766;29;20029;-91
2023/06/26 03:25:47;;;;;;;8.37;4.50;;;;;;;19.15;93.76;101210.56;4890172;29;20372;-94
2023/06/26 03:28:12;;;;;;;10.48;4.45;;;;;;;19.13;94.28;101208.16;4881804;29;20100;-92
2023/06/26 03:30:38;;;;;;;8.40;4.10;;;;;;;19.13;95.03;101210.88;4900047;29;20028;-94
2023/06/26 03:33:03;;;;;;;8.05;4.07;;;;;;;19.09;95.87;101217.19;4901018;29;20063;-94
2023/06/26 03:35:29;;;;;;;10.77;4.27;;;;;;;19.07;96.45;101214.81;4903620;29;20528;-94
2023/06/26 03:37:54;;;;;;;12.30;4.00;;;;;;;19.11;96.32;101215.81;4898807;29;20107;-94
2023/06/26 03:40:19;;;;;;;8.67;4.20;;;;;;;19.06;97.03;101207.75;4886546;29;20029;-93
2023/06/26 03:42:45;;;;;;;11.95;4.45;;;;;;;19.04;98.23;101205.38;4896680;29;20056;-93
2023/06/26 03:45:10;;;;;;;8.23;4.50;;;;;;;19.04;98.72;101209.97;4933359;29;20111;-93
2023/06/26 03:47:36;;;;;;;9.87;4.23;;;;;;;19.03;98.80;101200.22;4926733;29;20027;-94
2023/06/26 03:50:01;;;;;;;10.30;4.80;;;;;;;19.04;99.43;101208.09;4909808;29;20043;-93
2023/06/26 03:52:26;;;;;;;7.68;4.43;;;;;;;18.99;100.00;101199.25;4892991;29;20028;-94
2023/06/26 03:54:52;;;;;;;8.93;4.63;;;;;;;18.97;100.00;101210.41;4909142;29;20036;-93
2023/06/26 03:57:18;;;;;;;12.13;4.47;;;;;;;19.01;100.00;101216.84;4917580;29;20029;-93
2023/06/26 03:59:44;;;;;;;11.35;4.47;;;;;;;19.09;100.00;101228.06;4904015;29;20024;-92
2023/06/26 04:02:09;;;;;;;9.60;4.20;;;;;;;19.06;100.00;101227.59;4904057;29;20032;-91
2023/06/26 04:04:34;;;;;;;11.03;4.43;;;;;;;19.06;100.00;101235.75;4901239;29;20435;-92
2023/06/26 04:07:00;;;;;;;11.77;4.73;;;;;;;19.06;100.00;101234.91;4900694;29;20029;-93
2023/06/26 04:09:25;;;;;;;10.55;4.68;;;;;;;19.06;100.00;101240.34;4901553;29;20032;-91
2023/06/26 04:11:51;;;;;;;13.97;4.90;;;;;;;19.07;100.00;101250.09;4899621;29;20072;-93
2023/06/26 04:14:17;;;;;;;14.32;5.45;;;;;;;19.13;100.00;101250.78;4912686;29;20512;-91
2023/06/26 04:16:42;;;;;;;12.30;4.60;;;;;;;19.18;100.00;101251.47;4896326;29;20068;-87
2023/06/26 04:19:09;;;;;;;13.23;5.13;;;;;;;19.19;100.00;101260.44;4913906;29;20475;-88
2023/06/26 04:21:35;;;;;;;15.57;5.10;;;;;;;19.31;100.00;101268.06;4906711;29;20025;-87
2023/06/26 04:24:00;;;;;;;11.82;4.75;;;;;;;19.31;100.00;101265.34;4898565;29;20037;-91
2023/06/26 04:26:27;;;;;;;11.87;4.57;;;;;;;19.45;100.00;101270.72;4896268;29;20366;-90
2023/06/26 04:28:53;;;;;;;9.50;4.75;;;;;;;19.62;100.00;101275.50;4878227;29;20066;-91
2023/06/26 04:31:18;;;;;;;19.27;5.43;;;;;;;19.63;100.00;101266.22;4897370;29;20040;-89
2023/06/26 04:33:43;;;;;;;13.77;5.30;;;;;;;19.63;100.00;101258.06;4899529;29;20036;-91
2023/06/26 04:36:09;;;;;;;12.02;5.20;;;;;;;19.75;100.00;101266.47;4898176;29;20571;-91
2023/06/26 04:38:34;;;;;;;11.10;4.97;;;;;;;19.76;100.00;101264.56;4894584;29;20038;-90
2023/06/26 04:41:02;;;;;;;15.23;5.00;;;;;;;19.87;100.00;101267.84;4875356;29;20385;-91
2023/06/26 04:43:27;;;;;;;16.15;5.43;;;;;;;19.93;100.00;101278.31;4892168;29;20112;-89
2023/06/26 04:45:52;;;;;;;14.50;5.75;;;;;;;19.90;100.00;101273.47;4894937;29;20136;-88
2023/06/26 04:48:18;;;;;;;11.37;4.90;;;;;;;20.06;100.00;101281.25;4904340;29;20025;-90
2023/06/26 04:50:45;;;;;;;21.57;5.93;;;;;;;20.45;100.00;101295.22;4904426;29;20021;-90
2023/06/26 04:53:11;;;;;;;14.10;4.75;;;;;;;21.16;96.47;101288.88;4906870;29;20043;-91
2023/06/26 04:55:36;;;;;;;13.17;5.13;;;;;;;21.85;91.56;101286.47;4911815;29;20024;-90
2023/06/26 04:58:01;;;;;;;18.60;5.27;;;;;;;22.25;89.23;101288.94;4889002;29;20036;-89
2023/06/26 05:00:27;;;;;;;12.53;4.80;;;;;;;22.33;87.68;101296.28;4898998;29;20025;-90
2023/06/26 05:03:00;;;;;;;12.88;4.88;;;;;;;22.03;89.13;101303.59;4885252;29;20119;-90
2023/06/26 05:05:29;;;;;;;9.07;4.03;;;;;;;22.34;87.73;101308.81;4898058;29;20057;-89
2023/06/26 05:07:55;;;;;;;15.20;4.50;;;;;;;22.68;85.62;101307.09;4902580;29;20080;-89
2023/06/26 05:10:21;;;;;;;12.93;4.60;;;;;;;22.38;86.36;101290.63;4898359;29;20033;-89
2023/06/26 05:12:46;;;;;;;14.70;4.78;;;;;;;22.34;86.55;101305.28;4905847;29;20036;-89
2023/06/26 05:15:12;;;;;;;17.20;4.87;;;;;;;22.69;84.84;101311.44;4899458;29;20117;-93
2023/06/26 05:17:37;;;;;;;16.57;4.37;;;;;;;23.23;81.83;101318.22;4898962;29;20044;-90
2023/06/26 05:20:03;;;;;;;18.00;4.33;;;;;;;23.58;79.85;101323.41;4899903;29;20088;-94
2023/06/26 05:25:04;;;;;;;13.73;4.55;;;;;;;22.91;81.20;101328.69;5210437;23;20052;-90
2023/06/26 05:27:30;;;;;;;17.40;5.35;;;;;;;22.73;81.67;101325.22;4935771;29;20103;-92
2023/06/26 05:29:56;;;;;;;15.48;4.28;;;;;;;22.82;80.90;101317.78;4935567;29;20154;-92
2023/06/26 05:32:22;;;;;;;12.90;4.53;;;;;;;23.49;79.43;101338.28;4924340;29;20035;-94
2023/06/26 05:34:51;;;;;;;11.95;4.47;;;;;;;24.04;75.03;101337.16;4917730;29;20036;-90
2023/06/26 05:37:21;;;;;;;18.65;4.40;;;;;;;24.49;72.33;101335.53;4917809;29;20040;-91
2023/06/26 05:39:47;;;;;;;17.10;4.80;;;;;;;24.74;70.01;101343.78;4918786;29;20068;-92
2023/06/26 05:42:13;;;;;;;12.77;4.40;;;;;;;24.93;68.29;101348.69;4916955;29;20036;-91
2023/06/26 05:44:38;;;;;;;13.13;4.67;;;;;;;24.24;69.52;101351.13;4913488;29;20290;-91
2023/06/26 05:47:04;;;;;;;13.07;4.63;;;;;;;24.02;71.29;101328.50;4922024;29;20060;-91
2023/06/26 05:49:29;;;;;;;14.98;4.32;;;;;;;23.90;71.93;101353.84;4923358;29;20068;-91
2023/06/26 05:51:55;;;;;;;17.40;3.93;;;;;;;24.01;70.96;101354.25;4923549;29;20119;-90
2023/06/26 05:54:20;;;;;;;17.55;4.82;;;;;;;24.31;68.70;101356.84;4923610;29;20025;-88
2023/06/26 05:56:48;;;;;;;16.00;3.90;;;;;;;24.29;68.12;101364.59;4901531;29;20024;-89
2023/06/26 05:59:15;;;;;;;15.13;3.90;;;;;;;24.19;68.91;101354.88;4916932;29;20039;-92
2023/06/26 06:01:41;;;;;;;11.50;4.32;;;;;;;24.61;66.72;101367.63;4916480;29;20092;-93
2023/06/26 06:04:06;;;;;;;19.93;4.43;;;;;;;24.62;66.30;101371.16;4921070;29;20032;-94
2023/06/26 06:06:31;;;;;;;12.18;3.55;;;;;;;24.78;65.66;101368.56;4908548;29;20473;-96
2023/06/26 06:08:57;;;;;;;18.30;4.63;;;;;;;24.83;64.84;101373.84;4918541;29;20052;-90
2023/06/26 06:11:22;;;;;;;12.23;4.10;;;;;;;24.69;65.32;101381.53;4919146;29;20032;-94
2023/06/26 06:13:48;;;;;;;13.97;3.90;;;;;;;24.52;65.76;101383.34;4908171;29;20033;-96
2023/06/26 06:16:13;;;;;;;14.00;3.53;;;;;;;24.31;66.34;101389.69;4917443;29;20284;-91
2023/06/26 06:18:38;;;;;;;9.43;3.47;;;;;;;24.40;65.91;101391.56;4922789;29;20032;-94
2023/06/26 06:21:04;;;;;;;10.20;3.60;;;;;;;24.50;64.50;101397.41;4913855;29;20047;-92
2023/06/26 06:23:29;;;;;;;12.15;3.50;;;;;;;24.17;65.01;101389.19;4924918;29;20027;-96
2023/06/26 06:25:54;;;;;;;11.00;3.60;;;;;;;23.99;65.93;101391.31;4904859;29;20465;-93
2023/06/26 06:28:20;;;;;;;17.73;3.73;;;;;;;24.00;66.65;101396.44;4922301;29;20171;-94
2023/06/26 06:30:47;;;;;;;15.33;4.10;;;;;;;23.86;67.36;101404.91;4913189;29;20492;-87
2023/06/26 06:33:13;;;;;;;15.95;3.55;;;;;;;23.79;65.97;101392.91;4908194;29;20029;-90
2023/06/26 06:35:38;;;;;;;11.20;3.47;;;;;;;23.66;66.85;101408.44;4911228;29;20024;-87
2023/06/26 06:38:04;;;;;;;12.07;3.60;;;;;;;23.61;67.12;101403.97;4897531;29;20492;-87
2023/06/26 06:40:29;;;;;;;12.33;3.40;;;;;;;23.59;67.57;101400.78;4897572;29;20040;-90
2023/06/26 06:42:54;;;;;;;12.53;3.47;;;;;;;23.44;67.33;101405.72;4908504;29;20039;-88
2023/06/26 06:45:19;;;;;;;11.70;3.70;;;;;;;23.48;68.28;101408.56;4924291;29;20292;-90
2023/06/26 06:47:45;;;;;;;10.87;3.60;;;;;;;23.62;67.17;101413.78;4928455;29;20028;-92
2023/06/26 06:50:10;;;;;;;10.63;3.57;;;;;;;23.70;67.00;101428.53;4933462;29;20036;-91
2023/06/26 06:52:38;;;;;;;10.10;3.07;;;;;;;23.64;66.04;101436.13;4938148;29;20015;-95
2023/06/26 06:55:08;;;;;;;10.23;3.20;;;;;;;23.67;66.32;101432.75;4938006;29;20051;-96
2023/06/26 06:57:37;;;;;;;11.07;2.97;;;;;;;23.77;65.91;101430.72;4917988;29;20029;-95
2023/06/26 07:00:10;;;;;;;9.15;3.10;;;;;;;23.64;66.44;101427.94;4898772;29;20093;-93
2023/06/26 07:02:39;;;;;;;9.05;3.05;;;;;;;23.61;65.76;101434.06;4914710;29;20448;-94
2023/06/26 07:05:05;;;;;;;8.45;2.90;;;;;;;23.60;65.87;101443.41;4906595;29;20032;-90
2023/06/26 07:07:32;;;;;;;10.77;3.28;;;;;;;23.55;66.14;101449.88;4922502;29;20028;-91
2023/06/26 07:10:02;;;;;;;9.45;2.90;;;;;;;23.55;66.64;101454.56;4916239;29;20052;-89
2023/06/26 07:12:28;;;;;;;9.00;2.83;;;;;;;23.79;66.94;101450.34;4909886;29;20036;-91
2023/06/26 07:14:54;;;;;;;13.23;2.83;;;;;;;24.42;64.44;101457.75;4915900;29;20323;-90
2023/06/26 07:17:20;;;;;;;8.45;3.40;;;;;;;24.55;62.42;101459.38;4914904;29;20114;-91
2023/06/26 07:19:46;;;;;;;8.52;2.67;;;;;;;24.23;62.10;101459.03;4916111;29;20092;-89
2023/06/26 07:22:11;;;;;;;10.93;3.00;;;;;;;24.27;62.49;101453.69;4897621;29;20032;-93
2023/06/26 07:24:37;;;;;;;9.90;3.33;;;;;;;24.23;62.86;101470.00;4916717;29;20284;-88
2023/06/26 07:27:02;;;;;;;8.93;3.23;;;;;;;24.20;63.41;101459.72;4906110;29;20411;-87
2023/06/26 07:29:28;;;;;;;9.38;3.00;;;;;;;24.27;63.20;101481.06;4915525;29;20016;-89
2023/06/26 07:31:53;;;;;;;4.80;2.77;;;;;;;24.41;63.40;101470.63;4915115;29;20496;-90
2023/06/26 07:34:19;;;;;;;7.43;3.20;;;;;;;24.67;62.22;101480.53;4915085;29;20048;-88
2023/06/26 07:36:44;;;;;;;9.63;3.38;;;;;;;24.84;61.92;101481.50;4911984;29;20060;-88
2023/06/26 07:39:10;;;;;;;8.40;2.80;;;;;;;24.78;62.23;101483.66;4914764;29;20354;-90
2023/06/26 07:41:35;;;;;;;7.90;2.83;;;;;;;24.74;60.88;101497.22;4909508;29;20107;-87
2023/06/26 07:44:00;;;;;;;7.27;2.40;;;;;;;24.94;60.70;101487.34;4906095;29;20029;-90
2023/06/26 07:46:26;;;;;;;9.50;3.00;;;;;;;24.97;60.15;101502.28;4908107;29;20366;-87
2023/06/26 07:48:51;;;;;;;8.95;2.60;;;;;;;24.95;62.00;101497.16;4913143;29;20031;-87
2023/06/26 07:51:16;;;;;;;7.93;2.50;;;;;;;24.86;60.85;101506.63;4913712;29;20040;-92
2023/06/26 07:53:42;;;;;;;6.67;3.10;;;;;;;24.58;61.44;101501.72;4913771;29;20047;-90
2023/06/26 07:56:07;;;;;;;10.67;4.03;;;;;;;24.64;59.44;101517.63;4917923;29;20114;-87
2023/06/26 07:58:32;;;;;;;11.63;4.27;;;;;;;24.61;58.13;101512.00;4920905;29;20036;-89
2023/06/26 08:00:58;;;;;;;8.83;3.50;;;;;;;24.57;58.47;101520.09;4895477;29;20029;-86
2023/06/26 08:03:23;;;;;;;8.77;3.07;;;;;;;24.53;57.91;101519.16;4909063;29;20300;-88
2023/06/26 08:05:49;;;;;;;6.13;2.73;;;;;;;24.59;58.81;101528.78;4913488;29;20056;-87
2023/06/26 08:08:14;;;;;;;7.10;2.53;;;;;;;24.64;57.98;101516.81;4913756;29;20481;-86
2023/06/26 08:10:40;;;;;;;7.97;2.50;;;;;;;24.88;56.50;101515.31;4912617;29;20079;-87
2023/06/26 08:13:05;;;;;;;7.73;2.60;;;;;;;24.90;57.05;101522.03;4914119;29;20028;-88
2023/06/26 08:15:30;;;;;;;5.50;2.33;;;;;;;24.84;57.14;101526.13;4914532;29;20036;-89
2023/06/26 08:17:56;;;;;;;5.28;2.17;;;;;;;24.77;57.98;101523.94;4911512;29;20114;-87
2023/06/26 08:20:24;;;;;;;5.10;2.20;;;;;;;24.78;57.26;101530.25;4907887;29;20028;-89
2023/06/26 08:22:51;;;;;;;5.20;2.72;;;;;;;24.56;57.06;101531.41;4893823;29;20055;-89
2023/06/26 08:25:17;;;;;;;6.97;2.53;;;;;;;24.29;57.42;101528.88;4910386;29;20043;-87
2023/06/26 08:27:42;;;;;;;7.00;2.27;;;;;;;23.76;57.69;101539.38;4893834;29;20417;-87
2023/06/26 08:30:08;;;;;;;6.70;2.00;;;;;;;23.57;58.80;101528.84;4900202;29;20055;-89
2023/06/26 08:32:33;;;;;;;8.57;1.90;;;;;;;23.65;57.82;101538.94;4904933;29;20106;-88
2023/06/26 08:34:58;;;;;;;5.50;2.03;;;;;;;24.00;58.65;101537.97;4917115;29;20039;-88
2023/06/26 08:37:24;;;;;;;6.03;1.80;;;;;;;24.34;57.65;101549.78;4915086;29;20296;-86
2023/06/26 08:39:49;;;;;;;4.40;1.77;;;;;;;24.56;55.49;101534.94;4911434;29;20039;-90
2023/06/26 08:42:16;;;;;;;4.20;1.80;;;;;;;24.69;53.58;101533.03;4911528;29;20388;-89
2023/06/26 08:44:41;;;;;;;3.78;1.30;;;;;;;24.92;51.74;101535.44;4919786;29;20447;-92
2023/06/26 08:47:07;;;;;;;4.30;1.30;;;;;;;25.10;48.33;101545.06;4919594;29;20052;-89
2023/06/26 08:49:59;;;;;;;3.28;1.50;;;;;;;25.33;49.55;101552.03;4907305;29;20571;-89
2023/06/26 08:52:33;;;;;;;11.88;1.58;;;;;;;25.65;47.89;101553.13;4916678;29;20051;-88
2023/06/26 08:55:00;;;;;;;4.43;1.50;;;;;;;25.74;46.31;101547.50;4916771;29;20659;-91
2023/06/26 08:57:27;;;;;;;4.45;1.67;;;;;;;25.49;46.90;101563.16;4913525;29;20029;-89
2023/06/26 08:59:53;;;;;;;6.32;1.73;;;;;;;25.47;47.93;101565.47;4907778;29;20036;-90
2023/06/26 09:02:20;;;;;;;3.53;1.55;;;;;;;25.52;47.20;101566.03;4919693;29;20028;-89
2023/06/26 09:04:48;;;;;;;5.93;1.67;;;;;;;25.45;47.19;101559.50;4915281;29;20035;-92
2023/06/26 09:07:13;;;;;;;3.35;1.60;;;;;;;25.46;46.90;101561.91;4915992;29;20025;-90
2023/06/26 09:09:39;;;;;;;4.85;1.60;;;;;;;25.75;47.13;101573.78;4920375;29;20031;-92
2023/06/26 09:17:15;;;;;;;10.30;2.00;;;;;;;26.65;46.35;101574.84;5283269;23;20048;-95
2023/06/26 09:19:40;;;;;;;7.83;1.80;;;;;;;26.86;43.43;101563.66;4917763;29;20429;-93
2023/06/26 09:22:13;;;;;;;4.77;1.60;;;;;;;27.10;43.14;101581.97;4919603;29;20024;-92
2023/06/26 09:24:40;;;;;;;4.63;1.40;;;;;;;27.42;41.79;101579.22;4919583;29;20028;-90
2023/06/26 09:27:06;;;;;;;5.85;1.60;;;;;;;27.32;42.98;101579.75;4922174;29;20389;-95
2023/06/26 09:29:33;;;;;;;5.35;1.77;;;;;;;26.63;41.35;101569.72;4920197;29;20031;-94
2023/06/26 09:31:59;;;;;;;4.25;1.52;;;;;;;25.90;42.66;101568.75;4917322;29;20036;-96
2023/06/26 09:34:34;;;;;;;4.18;1.48;;;;;;;25.72;44.38;101595.63;4918960;29;20118;-95
2023/06/26 09:37:02;;;;;;;4.83;1.47;;;;;;;25.55;44.17;101597.47;4916284;29;20036;-94
2023/06/26 09:39:30;;;;;;;3.80;1.30;;;;;;;25.79;45.33;101595.88;4917049;29;20302;-94
2023/06/26 09:41:57;;;;;;;2.30;1.23;;;;;;;25.84;44.84;101596.44;4918352;29;20032;-94
2023/06/26 09:44:22;;;;;;;6.47;1.63;;;;;;;26.14;41.88;101596.19;4895537;29;20035;-93
2023/06/26 09:46:48;;;;;;;3.50;1.50;;;;;;;26.47;42.03;101610.09;4909965;29;20032;-91
2023/06/26 09:49:13;;;;;;;9.20;1.50;;;;;;;26.54;42.11;101610.28;4915840;29;20777;-93
2023/06/26 09:51:41;;;;;;;7.82;1.80;;;;;;;26.53;42.24;101605.91;4900998;29;20031;-90
2023/06/26 09:54:07;;;;;;;12.17;1.80;;;;;;;26.91;42.17;101615.63;4916134;29;20032;-90
2023/06/26 09:56:33;;;;;;;6.90;1.60;;;;;;;27.03;41.43;101623.81;4922278;29;20789;-93
2023/06/26 09:59:03;;;;;;;2.92;1.58;;;;;;;26.75;41.32;101619.13;4933523;29;20040;-92
2023/06/26 10:01:30;;;;;;;6.00;1.70;;;;;;;26.56;40.75;101614.28;4937444;29;20372;-92
2023/06/26 10:03:59;;;;;;;5.70;1.42;;;;;;;26.42;40.46;101611.91;4907977;29;20028;-93
2023/06/26 10:06:33;;;;;;;4.05;1.50;;;;;;;26.37;40.42;101614.91;4912433;29;20128;-91
2023/06/26 10:09:00;;;;;;;2.97;1.60;;;;;;;26.27;40.13;101615.41;4911300;29;20079;-91
2023/06/26 10:11:34;;;;;;;3.38;1.30;;;;;;;26.40;40.45;101627.94;4912750;29;20032;-92
2023/06/26 10:14:03;;;;;;;1.90;1.20;;;;;;;26.59;38.36;101629.25;4911168;29;20051;-91
2023/06/26 10:16:31;;;;;;;5.00;1.30;;;;;;;26.68;37.58;101634.63;4889838;29;20901;-93
2023/06/26 10:19:02;;;;;;;2.93;1.40;;;;;;;26.68;37.56;101635.41;4924025;29;20868;-90
2023/06/26 10:21:29;;;;;;;3.13;1.25;;;;;;;26.83;38.23;101636.63;4922873;29;20024;-88
2023/06/26 10:23:56;;;;;;;5.95;1.70;;;;;;;26.90;39.00;101627.78;4924894;29;20044;-92
2023/06/26 10:26:22;;;;;;;8.50;1.52;;;;;;;26.90;38.41;101620.34;4930328;29;20063;-96
2023/06/26 10:28:51;;;;;;;2.72;1.25;;;;;;;26.69;38.07;101642.50;4937950;29;20251;-96
2023/06/26 10:31:21;;;;;;;3.97;1.17;;;;;;;26.55;35.30;101637.41;4917717;29;20036;-94
2023/06/26 10:33:47;;;;;;;3.53;1.40;;;;;;;26.61;36.92;101635.22;4917256;29;20295;-93
2023/06/26 10:36:21;;;;;;;8.00;1.50;;;;;;;26.99;37.55;101633.13;4917485;29;20032;-92
2023/06/26 10:38:49;;;;;;;1.92;1.10;;;;;;;27.28;35.24;101637.44;4913261;29;20047;-89
2023/06/26 10:41:15;;;;;;;5.45;1.40;;;;;;;27.39;34.79;101647.94;4909699;29;20111;-89
2023/06/26 10:43:44;;;;;;;1.98;1.30;;;;;;;27.39;35.61;101647.94;4897445;29;20028;-89
2023/06/26 10:46:10;;;;;;;4.68;1.45;;;;;;;27.66;33.91;101646.28;4905875;29;20062;-89
2023/06/26 10:48:57;;;;;;;4.15;1.80;;;;;;;27.88;34.52;101655.84;4894239;29;20059;-89
2023/06/26 10:51:24;;;;;;;2.40;1.20;;;;;;;27.89;33.26;101665.72;4890181;29;20036;-88
2023/06/26 10:53:54;;;;;;;2.75;1.10;;;;;;;28.08;32.40;101658.66;4912205;29;20039;-89
2023/06/26 10:56:20;;;;;;;3.47;1.20;;;;;;;28.35;32.81;101661.63;4914115;29;20036;-88
2023/06/26 10:58:49;;;;;;;2.23;1.37;;;;;;;28.69;32.74;101650.91;4914821;29;20391;-90
2023/06/26 11:01:19;;;;;;;1.70;1.13;;;;;;;29.06;31.87;101655.19;4897628;29;20055;-89
2023/06/26 11:03:58;;;;;;;4.63;1.50;;;;;;;29.15;30.52;101648.28;4914460;29;20040;-92
2023/06/26 11:06:23;;;;;;;4.57;1.37;;;;;;;29.12;31.31;101657.28;4914417;29;20032;-89
2023/06/26 11:09:13;;;;;;;7.07;1.33;;;;;;;28.76;31.44;101678.66;4898678;29;20306;-87
2023/06/26 11:12:04;;;;;;;3.67;1.48;;;;;;;28.83;31.97;101675.25;4905312;29;20037;-88
2023/06/26 11:14:31;;;;;;;4.90;1.45;;;;;;;29.36;32.66;101662.84;4913529;29;20032;-87
2023/06/26 11:17:00;;;;;;;4.03;1.60;;;;;;;29.34;31.56;101665.13;4910644;29;20039;-89
2023/06/26 11:19:28;;;;;;;2.43;1.50;;;;;;;29.08;29.96;101672.97;4897007;29;20343;-88
2023/06/26 11:21:58;;;;;;;4.18;1.48;;;;;;;29.06;30.56;101675.28;4914598;29;20546;-89
2023/06/26 11:24:23;;;;;;;2.30;1.30;;;;;;;29.15;29.89;101664.84;4911810;29;20193;-88
2023/06/26 11:26:49;;;;;;;2.47;1.40;;;;;;;29.34;30.20;101677.00;4897447;29;20029;-89
2023/06/26 11:29:15;;;;;;;6.23;1.33;;;;;;;29.81;30.30;101677.81;4903360;29;20029;-89
2023/06/26 11:31:41;;;;;;;4.93;1.40;;;;;;;30.12;29.08;101680.66;4899829;29;20028;-89